createdAt,value
2022-11-12T00:02:44.550Z,8.80
2022-11-12T00:05:29.982Z,8.86
2022-11-12T00:08:15.572Z,8.86
2022-11-12T00:11:00.726Z,8.85
2022-11-12T00:13:46.110Z,8.84
2022-11-12T00:16:31.424Z,8.73
2022-11-12T00:19:17.115Z,8.67
2022-11-12T00:22:02.147Z,8.73
2022-11-12T00:24:50.572Z,8.78
2022-11-12T00:27:36.188Z,8.76
2022-11-12T00:30:21.492Z,8.79
2022-11-12T00:33:06.999Z,8.79
2022-11-12T00:35:52.308Z,8.75
2022-11-12T00:38:37.475Z,8.67
2022-11-12T00:41:23.143Z,8.56
2022-11-12T00:44:08.493Z,8.58
2022-11-12T00:46:53.733Z,8.60
2022-11-12T00:49:38.631Z,8.55
2022-11-12T00:52:23.850Z,8.49
2022-11-12T00:55:08.925Z,8.55
2022-11-12T00:57:54.351Z,8.66
2022-11-12T01:00:39.593Z,8.69
2022-11-12T01:03:24.759Z,8.65
2022-11-12T01:06:13.678Z,8.57
2022-11-12T01:08:59.367Z,8.51
2022-11-12T01:11:44.689Z,8.55
2022-11-12T01:14:30.041Z,8.55
2022-11-12T01:17:15.176Z,8.59
2022-11-12T01:20:00.907Z,8.65
2022-11-12T01:22:46.228Z,8.68
2022-11-12T01:25:31.890Z,8.72
2022-11-12T01:28:17.276Z,8.72
2022-11-12T01:31:18.047Z,8.78
2022-11-12T01:34:05.826Z,8.75
2022-11-12T01:36:51.510Z,8.76
2022-11-12T01:39:36.857Z,8.70
2022-11-12T01:42:24.410Z,8.73
2022-11-12T01:45:17.524Z,8.73
2022-11-12T01:48:03.117Z,8.70
2022-11-12T01:50:48.711Z,8.65
2022-11-12T01:53:39.702Z,8.45
2022-11-12T01:56:27.656Z,8.35
2022-11-12T01:59:19.194Z,8.34
2022-11-12T02:02:04.636Z,8.36
2022-11-12T02:04:50.613Z,8.28
2022-11-12T02:07:37.057Z,8.35
2022-11-12T02:10:22.671Z,8.40
2022-11-12T02:13:27.098Z,8.46
2022-11-12T02:16:12.589Z,8.48
2022-11-12T02:18:57.630Z,8.50
2022-11-12T02:21:42.989Z,8.33
2022-11-12T02:24:31.768Z,8.24
2022-11-12T02:27:17.035Z,8.10
2022-11-12T02:30:02.158Z,8.06
2022-11-12T02:32:47.124Z,8.09
2022-11-12T02:35:32.227Z,8.21
2022-11-12T02:38:17.382Z,8.32
2022-11-12T02:41:02.890Z,8.31
2022-11-12T02:43:48.306Z,8.31
2022-11-12T02:46:33.695Z,8.33
2022-11-12T02:49:19.159Z,8.31
2022-11-12T02:52:05.110Z,8.24
2022-11-12T02:54:50.240Z,8.25
2022-11-12T02:57:36.519Z,8.19
2022-11-12T03:00:21.625Z,8.06
2022-11-12T03:03:06.964Z,7.93
2022-11-12T03:06:00.533Z,7.92
2022-11-12T03:08:45.878Z,7.63
2022-11-12T03:11:31.277Z,7.49
2022-11-12T03:14:16.891Z,7.39
2022-11-12T03:17:02.154Z,7.34
2022-11-12T03:19:48.476Z,7.34
2022-11-12T03:22:33.490Z,7.37
2022-11-12T03:25:18.643Z,7.37
2022-11-12T03:28:07.429Z,7.43
2022-11-12T03:31:00.092Z,7.45
2022-11-12T03:33:45.963Z,7.47
2022-11-12T03:36:31.207Z,7.52
2022-11-12T03:39:16.245Z,7.53
2022-11-12T03:42:01.785Z,7.51
2022-11-12T03:44:47.266Z,7.38
2022-11-12T03:47:32.443Z,7.34
2022-11-12T03:50:19.689Z,7.28
2022-11-12T03:53:05.136Z,7.24
2022-11-12T03:55:50.486Z,7.27
2022-11-12T03:58:35.708Z,7.36
2022-11-12T04:01:20.709Z,7.30
2022-11-12T04:04:06.150Z,7.17
2022-11-12T04:07:09.832Z,7.06
2022-11-12T04:09:55.044Z,6.89
2022-11-12T04:12:58.824Z,6.96
2022-11-12T04:15:44.263Z,7.04
2022-11-12T04:18:47.715Z,7.04
2022-11-12T04:21:56.461Z,6.97
2022-11-12T04:25:01.220Z,6.89
2022-11-12T04:27:46.628Z,6.66
2022-11-12T04:30:31.950Z,6.60
2022-11-12T04:33:17.100Z,6.53
2022-11-12T04:36:02.265Z,6.43
2022-11-12T04:38:47.460Z,6.28
2022-11-12T04:41:51.472Z,6.20
2022-11-12T04:44:55.606Z,6.23
2022-11-12T04:47:43.921Z,6.24
2022-11-12T04:50:28.867Z,6.28
2022-11-12T04:53:14.395Z,6.15
2022-11-12T04:55:59.956Z,6.15
2022-11-12T04:58:45.888Z,6.12
2022-11-12T05:01:31.054Z,6.15
2022-11-12T05:04:16.594Z,6.12
2022-11-12T05:07:02.266Z,6.04
2022-11-12T05:09:47.768Z,6.04
2022-11-12T05:12:33.155Z,5.99
2022-11-12T05:15:18.467Z,6.01
2022-11-12T05:18:04.081Z,5.96
2022-11-12T05:20:51.381Z,6.01
2022-11-12T05:23:36.540Z,6.14
2022-11-12T05:26:21.647Z,6.14
2022-11-12T05:29:08.906Z,6.22
2022-11-12T05:31:54.707Z,6.27
2022-11-12T05:34:40.405Z,6.32
2022-11-12T05:37:25.519Z,6.36
2022-11-12T05:40:10.971Z,6.40
2022-11-12T05:42:56.411Z,6.40
2022-11-12T05:45:44.627Z,6.42
2022-11-12T05:48:30.576Z,6.44
2022-11-12T05:51:16.629Z,6.48
2022-11-12T05:54:02.002Z,6.38
2022-11-12T05:56:47.444Z,6.39
2022-11-12T05:59:32.402Z,6.53
2022-11-12T06:02:17.567Z,6.61
2022-11-12T06:05:02.842Z,6.75
2022-11-12T06:07:48.205Z,6.90
2022-11-12T06:10:33.520Z,7.04
2022-11-12T06:13:19.814Z,7.13
2022-11-12T06:16:05.519Z,7.23
2022-11-12T06:18:50.571Z,7.38
2022-11-12T06:21:36.042Z,7.51
2022-11-12T06:24:21.526Z,7.56
2022-11-12T06:27:06.605Z,7.64
2022-11-12T06:29:51.747Z,7.68
2022-11-12T06:32:36.880Z,7.61
2022-11-12T06:35:21.834Z,7.66
2022-11-12T06:38:06.861Z,7.76
2022-11-12T06:40:51.915Z,7.83
2022-11-12T06:43:37.287Z,7.82
2022-11-12T06:46:22.346Z,7.84
2022-11-12T06:49:07.523Z,7.75
2022-11-12T06:51:52.839Z,7.78
2022-11-12T06:54:38.334Z,7.80
2022-11-12T06:57:23.510Z,7.87
2022-11-12T07:00:10.570Z,7.87
2022-11-12T07:02:56.058Z,7.99
2022-11-12T07:05:41.327Z,8.10
2022-11-12T07:08:26.692Z,8.15
2022-11-12T07:11:13.152Z,8.20
2022-11-12T07:13:58.542Z,8.09
2022-11-12T07:16:43.973Z,8.08
2022-11-12T07:19:29.092Z,8.14
2022-11-12T07:22:14.526Z,8.15
2022-11-12T07:24:59.570Z,8.14
2022-11-12T07:27:44.746Z,8.25
2022-11-12T07:30:30.030Z,8.32
2022-11-12T07:33:15.359Z,8.30
2022-11-12T07:36:11.256Z,8.36
2022-11-12T07:38:56.660Z,8.41
2022-11-12T07:41:42.065Z,8.46
2022-11-12T07:44:27.435Z,8.58
2022-11-12T07:47:12.529Z,8.61
2022-11-12T07:49:57.612Z,8.58
2022-11-12T07:52:42.720Z,8.53
2022-11-12T07:55:27.814Z,8.60
2022-11-12T07:58:13.187Z,8.59
2022-11-12T08:00:58.660Z,8.65
2022-11-12T08:03:43.979Z,8.75
2022-11-12T08:06:30.700Z,8.75
2022-11-12T08:09:15.876Z,8.69
2022-11-12T08:12:01.288Z,8.76
2022-11-12T08:14:46.596Z,8.80
2022-11-12T08:17:32.053Z,8.82
2022-11-12T08:20:17.442Z,8.84
2022-11-12T08:23:02.869Z,8.77
2022-11-12T08:25:48.039Z,8.82
2022-11-12T08:28:34.649Z,8.82
2022-11-12T08:31:22.159Z,8.83
2022-11-12T08:34:15.210Z,8.73
2022-11-12T08:37:02.734Z,8.74
2022-11-12T08:39:48.178Z,8.71
2022-11-12T08:42:33.184Z,8.78
2022-11-12T08:45:18.496Z,8.84
2022-11-12T08:48:06.346Z,8.85
2022-11-12T08:50:51.477Z,8.79
2022-11-12T08:53:37.097Z,8.93
2022-11-12T08:56:22.162Z,9.13
2022-11-12T08:59:07.748Z,9.22
2022-11-12T09:01:52.907Z,9.27
2022-11-12T09:04:38.337Z,9.26
2022-11-12T09:07:50.841Z,9.27
2022-11-12T09:10:29.269Z,9.20
2022-11-12T09:13:14.644Z,9.11
2022-11-12T09:16:01.708Z,9.27
2022-11-12T09:18:47.880Z,9.30
2022-11-12T09:21:32.932Z,9.32
2022-11-12T09:24:18.287Z,9.33
2022-11-12T09:27:03.560Z,9.41
2022-11-12T09:29:48.984Z,9.63
2022-11-12T09:32:34.089Z,9.63
2022-11-12T09:35:19.337Z,9.59
2022-11-12T09:38:04.543Z,9.72
2022-11-12T09:40:52.432Z,9.72
2022-11-12T09:43:42.307Z,9.68
2022-11-12T09:46:52.718Z,9.70
2022-11-12T09:49:50.539Z,9.68
2022-11-12T09:52:35.991Z,9.53
2022-11-12T09:55:29.185Z,9.57
2022-11-12T09:58:16.390Z,9.59
2022-11-12T10:01:17.087Z,9.68
2022-11-12T10:04:39.535Z,9.78
2022-11-12T10:07:39.709Z,9.76
2022-11-12T10:10:40.487Z,9.87
2022-11-12T10:13:42.143Z,9.88
2022-11-12T10:16:58.093Z,9.73
2022-11-12T10:19:54.023Z,9.71
2022-11-12T10:23:03.834Z,9.88
2022-11-12T10:25:50.989Z,9.90
2022-11-12T10:29:02.288Z,9.88
2022-11-12T10:31:47.520Z,9.96
2022-11-12T10:34:33.153Z,9.91
2022-11-12T10:37:40.171Z,9.48
2022-11-12T10:40:35.364Z,9.36
2022-11-12T10:43:23.183Z,9.32
2022-11-12T10:46:37.979Z,9.41
2022-11-12T10:49:25.181Z,9.37
2022-11-12T10:52:24.652Z,9.43
2022-11-12T10:55:20.330Z,9.46
2022-11-12T10:58:11.675Z,9.38
2022-11-12T11:01:05.275Z,9.29
2022-11-12T11:03:58.070Z,9.27
2022-11-12T11:06:43.653Z,9.23
2022-11-12T11:09:29.274Z,9.19
2022-11-12T11:12:27.136Z,9.31
2022-11-12T11:15:23.902Z,9.21
2022-11-12T11:18:12.071Z,9.40
2022-11-12T11:21:11.155Z,9.48
2022-11-12T11:24:30.119Z,9.38
2022-11-12T11:27:36.651Z,9.44
2022-11-12T11:30:23.154Z,9.23
2022-11-12T11:33:39.640Z,9.11
2022-11-12T11:36:35.756Z,9.12
2022-11-12T11:39:39.111Z,9.16
2022-11-12T11:42:33.010Z,9.19
2022-11-12T11:45:50.748Z,9.09
2022-11-12T11:48:50.874Z,9.07
2022-11-12T11:51:46.437Z,9.10
2022-11-12T11:54:59.647Z,9.19
2022-11-12T11:57:57.053Z,9.32
2022-11-12T12:00:47.772Z,9.25
2022-11-12T12:03:45.767Z,9.18
2022-11-12T12:06:37.847Z,9.17
2022-11-12T12:09:52.681Z,9.20
2022-11-12T12:13:13.529Z,9.32
2022-11-12T12:16:17.428Z,9.36
2022-11-12T12:19:28.340Z,9.33
2022-11-12T12:22:20.425Z,9.28
2022-11-12T12:25:15.575Z,9.28
2022-11-12T12:28:10.787Z,9.26
2022-11-12T12:30:59.331Z,9.19
2022-11-12T12:34:03.266Z,9.05
2022-11-12T12:36:51.759Z,9.21
2022-11-12T12:40:03.090Z,9.40
2022-11-12T12:43:06.886Z,9.54
2022-11-12T12:45:52.162Z,9.53
2022-11-12T12:48:43.253Z,9.44
2022-11-12T12:51:30.304Z,9.45
2022-11-12T12:54:37.285Z,9.40
2022-11-12T12:57:31.347Z,9.46
2022-11-12T13:00:39.070Z,9.37
2022-11-12T13:03:42.703Z,9.39
2022-11-12T13:06:46.462Z,9.30
2022-11-12T13:09:33.324Z,9.35
2022-11-12T13:12:18.859Z,9.26
2022-11-12T13:15:15.194Z,9.26
2022-11-12T13:18:00.672Z,9.27
2022-11-12T13:21:08.819Z,9.25
2022-11-12T13:24:08.092Z,9.27
2022-11-12T13:26:58.397Z,9.23
2022-11-12T13:29:45.072Z,8.99
2022-11-12T13:32:37.290Z,9.04
2022-11-12T13:35:30.453Z,9.10
2022-11-12T13:38:16.029Z,9.15
2022-11-12T13:41:40.622Z,8.98
2022-11-12T13:44:27.307Z,8.74
2022-11-12T13:47:19.264Z,8.64
2022-11-12T13:50:08.538Z,8.50
2022-11-12T13:52:53.606Z,8.43
2022-11-12T13:55:48.439Z,8.41
2022-11-12T13:58:35.207Z,8.27
2022-11-12T14:01:23.505Z,8.16
2022-11-12T14:04:16.932Z,8.03
2022-11-12T14:07:33.292Z,7.95
2022-11-12T14:10:26.388Z,8.01
2022-11-12T14:13:35.922Z,8.02
2022-11-12T14:16:30.003Z,7.97
2022-11-12T14:19:39.879Z,7.81
2022-11-12T14:22:25.105Z,7.73
2022-11-12T14:25:27.358Z,7.74
2022-11-12T14:28:25.653Z,7.70
2022-11-12T14:31:15.340Z,7.60
2022-11-12T14:34:19.736Z,7.53
2022-11-12T14:37:05.160Z,7.44
2022-11-12T14:39:50.772Z,7.42
2022-11-12T14:42:35.795Z,7.37
2022-11-12T14:45:22.293Z,7.44
2022-11-12T14:48:08.820Z,7.39
2022-11-12T14:51:04.000Z,7.41
2022-11-12T14:54:26.979Z,7.42
2022-11-12T14:57:19.303Z,7.51
2022-11-12T15:00:25.678Z,7.49
2022-11-12T15:03:26.408Z,7.52
2022-11-12T15:06:11.984Z,7.57
2022-11-12T15:08:58.755Z,7.63
2022-11-12T15:11:47.983Z,7.72
2022-11-12T15:14:33.911Z,7.81
2022-11-12T15:17:39.079Z,7.87
2022-11-12T15:20:24.622Z,7.94
2022-11-12T15:23:18.878Z,8.01
2022-11-12T15:26:04.250Z,8.07
2022-11-12T15:29:04.405Z,8.13
2022-11-12T15:31:59.207Z,8.17
2022-11-12T15:34:48.312Z,8.13
2022-11-12T15:37:40.614Z,8.05
2022-11-12T15:40:25.643Z,8.06
2022-11-12T15:43:18.824Z,8.09
2022-11-12T15:46:04.246Z,8.14
2022-11-12T15:48:55.490Z,8.08
2022-11-12T15:51:41.142Z,8.09
2022-11-12T15:54:26.399Z,8.13
2022-11-12T15:57:20.433Z,8.10
2022-11-12T16:00:10.484Z,7.98
2022-11-12T16:03:16.691Z,7.99
2022-11-12T16:06:08.348Z,7.95
2022-11-12T16:08:53.948Z,7.98
2022-11-12T16:11:39.308Z,7.90
2022-11-12T16:14:25.180Z,7.88
2022-11-12T16:17:13.573Z,7.79
2022-11-12T16:19:58.835Z,7.80
2022-11-12T16:22:44.178Z,7.82
2022-11-12T16:25:34.044Z,7.76
2022-11-12T16:28:19.471Z,7.77
2022-11-12T16:31:05.604Z,7.76
2022-11-12T16:33:50.621Z,7.81
2022-11-12T16:36:35.808Z,7.80
2022-11-12T16:39:20.896Z,7.76
2022-11-12T16:42:06.383Z,7.76
2022-11-12T16:44:51.374Z,7.76
2022-11-12T16:47:43.197Z,7.70
2022-11-12T16:50:28.574Z,7.74
2022-11-12T16:53:14.080Z,7.75
2022-11-12T16:55:59.017Z,7.72
2022-11-12T16:58:44.261Z,7.76
2022-11-12T17:01:31.837Z,7.74
2022-11-12T17:04:17.252Z,7.83
2022-11-12T17:07:05.928Z,7.90
2022-11-12T17:09:52.759Z,7.91
2022-11-12T17:12:38.052Z,7.95
2022-11-12T17:15:23.517Z,7.98
2022-11-12T17:18:09.739Z,8.01
2022-11-12T17:20:55.359Z,8.02
2022-11-12T17:23:42.435Z,8.08
2022-11-12T17:26:27.756Z,8.17
2022-11-12T17:29:13.147Z,8.28
2022-11-12T17:31:58.548Z,8.23
2022-11-12T17:34:44.231Z,8.22
2022-11-12T17:37:29.504Z,8.23
2022-11-12T17:43:00.031Z,8.39
2022-11-12T17:45:52.187Z,8.43
2022-11-12T17:48:37.652Z,8.47
2022-11-12T17:51:25.131Z,8.56
2022-11-12T17:54:10.625Z,8.57
2022-11-12T17:56:55.678Z,8.61
2022-11-12T17:59:41.159Z,8.61
2022-11-12T18:02:26.357Z,8.55
2022-11-12T18:05:11.746Z,8.56
2022-11-12T18:07:56.851Z,8.54
2022-11-12T18:10:45.168Z,8.53
2022-11-12T18:13:30.967Z,8.56
2022-11-12T18:16:19.283Z,8.51
2022-11-12T18:19:05.054Z,8.48
2022-11-12T18:21:50.080Z,8.45
2022-11-12T18:24:35.734Z,8.37
2022-11-12T18:27:20.876Z,8.27
2022-11-12T18:30:06.519Z,8.25
2022-11-12T18:32:51.768Z,8.17
2022-11-12T18:35:37.103Z,8.16
2022-11-12T18:38:22.438Z,8.18
2022-11-12T18:41:09.773Z,8.14
2022-11-12T18:43:55.907Z,8.12
2022-11-12T18:46:41.321Z,8.09
2022-11-12T18:49:26.520Z,8.04
2022-11-12T18:52:11.735Z,8.03
2022-11-12T18:54:56.956Z,8.08
2022-11-12T18:57:42.103Z,8.11
2022-11-12T19:00:27.256Z,8.16
2022-11-12T19:03:12.526Z,8.20
2022-11-12T19:05:59.109Z,8.17
2022-11-12T19:08:44.487Z,8.18
2022-11-12T19:11:29.839Z,8.23
2022-11-12T19:14:14.924Z,8.20
2022-11-12T19:17:00.058Z,8.22
2022-11-12T19:19:45.335Z,8.19
2022-11-12T19:22:31.185Z,8.21
2022-11-12T19:25:16.661Z,8.26
2022-11-12T19:28:02.523Z,8.28
2022-11-12T19:30:47.719Z,8.27
2022-11-12T19:33:33.737Z,8.22
2022-11-12T19:36:22.451Z,8.23
2022-11-12T19:39:07.632Z,8.24
2022-11-12T19:41:52.948Z,8.23
2022-11-12T19:44:37.984Z,8.18
2022-11-12T19:47:23.033Z,8.17
2022-11-12T19:50:08.416Z,8.18
2022-11-12T19:52:54.674Z,8.21
2022-11-12T19:55:40.104Z,8.23
2022-11-12T19:58:25.833Z,8.19
2022-11-12T20:01:14.328Z,8.16
2022-11-12T20:03:59.816Z,8.20
2022-11-12T20:06:45.450Z,8.16
2022-11-12T20:09:32.076Z,8.19
2022-11-12T20:12:17.318Z,8.24
2022-11-12T20:15:02.845Z,8.25
2022-11-12T20:17:47.891Z,8.26
2022-11-12T20:20:33.092Z,8.28
2022-11-12T20:23:18.252Z,8.25
2022-11-12T20:26:10.034Z,8.28
2022-11-12T20:28:55.195Z,8.25
2022-11-12T20:31:41.984Z,8.24
2022-11-12T20:34:27.182Z,8.20
2022-11-12T20:37:12.291Z,8.15
2022-11-12T20:39:57.487Z,8.14
2022-11-12T20:42:42.930Z,8.09
2022-11-12T20:45:28.311Z,8.13
2022-11-12T20:48:13.527Z,8.13
2022-11-12T20:51:25.353Z,8.11
2022-11-12T20:54:11.609Z,8.12
2022-11-12T20:56:56.990Z,8.10
2022-11-12T20:59:42.136Z,8.13
2022-11-12T21:02:27.725Z,8.11
2022-11-12T21:05:12.769Z,8.16
2022-11-12T21:07:57.907Z,8.17
2022-11-12T21:10:42.997Z,8.18
2022-11-12T21:13:28.123Z,8.16
2022-11-12T21:16:14.279Z,8.18
2022-11-12T21:19:01.581Z,8.19
2022-11-12T21:21:46.790Z,8.19
2022-11-12T21:24:31.793Z,8.19
2022-11-12T21:27:17.151Z,8.24
2022-11-12T21:30:02.613Z,8.25
2022-11-12T21:32:48.052Z,8.28
2022-11-12T21:35:33.255Z,8.28
2022-11-12T21:38:18.134Z,8.32
2022-11-12T21:41:07.892Z,8.27
2022-11-12T21:43:54.235Z,8.30
2022-11-12T21:46:40.470Z,8.27
2022-11-12T21:49:25.467Z,8.27
2022-11-12T21:52:12.859Z,8.27
2022-11-12T21:54:58.062Z,8.25
2022-11-12T21:57:43.246Z,8.21
2022-11-12T22:00:41.594Z,8.20
2022-11-12T22:03:30.553Z,8.17
2022-11-12T22:06:16.468Z,8.15
2022-11-12T22:09:01.828Z,8.13
2022-11-12T22:11:47.392Z,8.10
2022-11-12T22:14:32.673Z,8.12
2022-11-12T22:17:17.715Z,8.14
2022-11-12T22:20:02.950Z,8.10
2022-11-12T22:22:47.993Z,8.10
2022-11-12T22:25:33.576Z,8.13
2022-11-12T22:28:18.939Z,8.13
2022-11-12T22:31:09.707Z,8.17
2022-11-12T22:33:55.763Z,8.19
2022-11-12T22:36:41.245Z,8.21
2022-11-12T22:39:27.272Z,8.24
2022-11-12T22:42:12.687Z,8.24
2022-11-12T22:44:57.774Z,8.19
2022-11-12T22:47:42.935Z,8.16
2022-11-12T22:50:28.047Z,8.18
2022-11-12T22:53:14.518Z,8.20
2022-11-12T22:56:08.272Z,8.20
2022-11-12T22:58:53.882Z,8.17
2022-11-12T23:01:39.316Z,8.11
2022-11-12T23:04:24.614Z,8.11
2022-11-12T23:07:09.783Z,8.15
2022-11-12T23:09:55.377Z,8.16
2022-11-12T23:12:40.635Z,8.20
2022-11-12T23:15:29.214Z,8.24
2022-11-12T23:18:14.660Z,8.21
2022-11-12T23:21:11.206Z,8.23
2022-11-12T23:23:57.979Z,8.20
2022-11-12T23:26:43.583Z,8.21
2022-11-12T23:29:28.860Z,8.20
2022-11-12T23:32:13.864Z,8.27
2022-11-12T23:34:59.224Z,8.32
2022-11-12T23:37:44.588Z,8.37
2022-11-12T23:40:31.091Z,8.38
2022-11-12T23:43:16.734Z,8.34
2022-11-12T23:46:02.585Z,8.35
2022-11-12T23:48:48.345Z,8.36
2022-11-12T23:51:33.374Z,8.40
2022-11-12T23:54:18.452Z,8.38
2022-11-12T23:57:03.696Z,8.38
2022-11-12T23:59:48.917Z,8.35
